sensor_id;sensor_type;location;lat;lon;timestamp;temperature;humidity
15638;DHT22;26604;53.596;10.042;2022-07-29T00:01:37;21.60;1.00
15638;DHT22;26604;53.596;10.042;2022-07-29T00:04:04;21.60;1.00
15638;DHT22;26604;53.596;10.042;2022-07-29T00:06:31;21.60;1.00
15638;DHT22;26604;53.596;10.042;2022-07-29T00:08:58;21.60;1.00
15638;DHT22;26604;53.596;10.042;2022-07-29T00:11:25;21.60;1.00
15638;DHT22;26604;53.596;10.042;2022-07-29T00:13:52;21.50;1.00
15638;DHT22;26604;53.596;10.042;2022-07-29T00:16:20;21.60;1.00
15638;DHT22;26604;53.596;10.042;2022-07-29T00:18:47;21.60;1.00
15638;DHT22;26604;53.596;10.042;2022-07-29T00:21:14;21.60;1.00
15638;DHT22;26604;53.596;10.042;2022-07-29T00:23:41;21.60;99.90
15638;DHT22;26604;53.596;10.042;2022-07-29T00:26:08;21.70;99.90
15638;DHT22;26604;53.596;10.042;2022-07-29T00:28:35;21.70;99.90
15638;DHT22;26604;53.596;10.042;2022-07-29T00:31:02;21.70;99.90
15638;DHT22;26604;53.596;10.042;2022-07-29T00:33:30;21.60;99.90
15638;DHT22;26604;53.596;10.042;2022-07-29T00:35:57;21.60;99.90
15638;DHT22;26604;53.596;10.042;2022-07-29T00:38:23;21.60;99.90
15638;DHT22;26604;53.596;10.042;2022-07-29T00:40:49;21.60;99.90
15638;DHT22;26604;53.596;10.042;2022-07-29T00:43:17;21.60;99.90
15638;DHT22;26604;53.596;10.042;2022-07-29T00:45:44;21.60;99.90
15638;DHT22;26604;53.596;10.042;2022-07-29T00:48:11;21.60;99.90
15638;DHT22;26604;53.596;10.042;2022-07-29T00:50:39;21.60;99.90
15638;DHT22;26604;53.596;10.042;2022-07-29T00:53:07;21.60;99.90
15638;DHT22;26604;53.596;10.042;2022-07-29T00:55:35;21.60;99.90
15638;DHT22;26604;53.596;10.042;2022-07-29T00:58:02;21.60;99.90
15638;DHT22;26604;53.596;10.042;2022-07-29T01:00:29;21.60;99.90
15638;DHT22;26604;53.596;10.042;2022-07-29T01:02:56;21.60;99.90
15638;DHT22;26604;53.596;10.042;2022-07-29T01:05:24;21.60;99.90
15638;DHT22;26604;53.596;10.042;2022-07-29T01:07:54;21.60;99.90
15638;DHT22;26604;53.596;10.042;2022-07-29T01:10:22;21.60;99.90
15638;DHT22;26604;53.596;10.042;2022-07-29T01:12:51;21.60;99.90
15638;DHT22;26604;53.596;10.042;2022-07-29T01:15:18;21.60;99.90
15638;DHT22;26604;53.596;10.042;2022-07-29T01:17:50;21.60;99.90
15638;DHT22;26604;53.596;10.042;2022-07-29T01:20:25;21.60;99.90
15638;DHT22;26604;53.596;10.042;2022-07-29T01:23:09;21.60;99.90
15638;DHT22;26604;53.596;10.042;2022-07-29T01:26:00;21.60;99.90
15638;DHT22;26604;53.596;10.042;2022-07-29T01:28:52;21.60;99.90
15638;DHT22;26604;53.596;10.042;2022-07-29T01:31:28;21.60;99.90
15638;DHT22;26604;53.596;10.042;2022-07-29T01:33:58;21.60;99.90
15638;DHT22;26604;53.596;10.042;2022-07-29T01:36:32;21.60;99.90
15638;DHT22;26604;53.596;10.042;2022-07-29T01:39:06;21.60;1.00
15638;DHT22;26604;53.596;10.042;2022-07-29T01:41:37;21.60;1.00
15638;DHT22;26604;53.596;10.042;2022-07-29T01:44:12;21.60;1.00
15638;DHT22;26604;53.596;10.042;2022-07-29T01:46:44;21.60;1.00
15638;DHT22;26604;53.596;10.042;2022-07-29T01:49:16;21.60;1.00
15638;DHT22;26604;53.596;10.042;2022-07-29T01:51:47;21.60;1.00
15638;DHT22;26604;53.596;10.042;2022-07-29T01:54:20;21.60;1.00
15638;DHT22;26604;53.596;10.042;2022-07-29T01:56:50;21.60;1.00
15638;DHT22;26604;53.596;10.042;2022-07-29T01:59:20;21.60;1.00
15638;DHT22;26604;53.596;10.042;2022-07-29T02:01:50;21.60;1.00
15638;DHT22;26604;53.596;10.042;2022-07-29T02:04:20;21.60;1.00
15638;DHT22;26604;53.596;10.042;2022-07-29T02:06:50;21.60;1.00
15638;DHT22;26604;53.596;10.042;2022-07-29T02:09:18;21.50;1.00
15638;DHT22;26604;53.596;10.042;2022-07-29T02:11:50;21.50;1.00
15638;DHT22;26604;53.596;10.042;2022-07-29T02:14:21;21.50;5.90
15638;DHT22;26604;53.596;10.042;2022-07-29T02:16:51;21.50;47.00
15638;DHT22;26604;53.596;10.042;2022-07-29T02:19:21;21.50;85.70
15638;DHT22;26604;53.596;10.042;2022-07-29T02:21:51;21.50;99.90
15638;DHT22;26604;53.596;10.042;2022-07-29T02:24:21;21.50;99.90
15638;DHT22;26604;53.596;10.042;2022-07-29T02:26:49;21.50;99.90
15638;DHT22;26604;53.596;10.042;2022-07-29T02:29:22;21.50;99.90
15638;DHT22;26604;53.596;10.042;2022-07-29T02:31:50;21.50;99.90
15638;DHT22;26604;53.596;10.042;2022-07-29T02:34:20;21.50;99.90
15638;DHT22;26604;53.596;10.042;2022-07-29T02:36:48;21.50;99.90
15638;DHT22;26604;53.596;10.042;2022-07-29T02:39:17;21.50;99.90
15638;DHT22;26604;53.596;10.042;2022-07-29T02:41:47;21.50;99.90
15638;DHT22;26604;53.596;10.042;2022-07-29T02:44:17;21.50;99.90
15638;DHT22;26604;53.596;10.042;2022-07-29T02:46:50;21.50;99.90
15638;DHT22;26604;53.596;10.042;2022-07-29T02:49:27;21.50;93.20
15638;DHT22;26604;53.596;10.042;2022-07-29T02:52:00;21.50;95.00
15638;DHT22;26604;53.596;10.042;2022-07-29T02:54:37;21.50;85.20
15638;DHT22;26604;53.596;10.042;2022-07-29T02:57:11;21.50;99.90
15638;DHT22;26604;53.596;10.042;2022-07-29T02:59:42;21.50;99.90
15638;DHT22;26604;53.596;10.042;2022-07-29T03:02:13;21.50;99.90
15638;DHT22;26604;53.596;10.042;2022-07-29T03:04:42;21.50;99.90
15638;DHT22;26604;53.596;10.042;2022-07-29T03:07:11;21.50;99.90
15638;DHT22;26604;53.596;10.042;2022-07-29T03:09:40;21.50;99.90
15638;DHT22;26604;53.596;10.042;2022-07-29T03:12:08;21.50;1.00
15638;DHT22;26604;53.596;10.042;2022-07-29T03:14:36;21.50;1.00
15638;DHT22;26604;53.596;10.042;2022-07-29T03:17:04;21.50;99.90
15638;DHT22;26604;53.596;10.042;2022-07-29T03:19:32;21.50;99.90
15638;DHT22;26604;53.596;10.042;2022-07-29T03:22:00;21.50;99.90
15638;DHT22;26604;53.596;10.042;2022-07-29T03:24:31;21.50;99.90
15638;DHT22;26604;53.596;10.042;2022-07-29T03:26:58;21.50;1.00
15638;DHT22;26604;53.596;10.042;2022-07-29T03:29:26;21.50;1.00
15638;DHT22;26604;53.596;10.042;2022-07-29T03:31:53;21.50;1.00
15638;DHT22;26604;53.596;10.042;2022-07-29T03:34:20;21.50;1.00
15638;DHT22;26604;53.596;10.042;2022-07-29T03:36:49;21.40;1.00
15638;DHT22;26604;53.596;10.042;2022-07-29T03:39:19;21.50;1.00
15638;DHT22;26604;53.596;10.042;2022-07-29T03:41:49;21.50;1.00
15638;DHT22;26604;53.596;10.042;2022-07-29T03:44:18;21.50;1.00
15638;DHT22;26604;53.596;10.042;2022-07-29T03:46:46;21.50;1.00
15638;DHT22;26604;53.596;10.042;2022-07-29T03:49:15;21.50;1.00
15638;DHT22;26604;53.596;10.042;2022-07-29T03:51:43;21.50;1.00
15638;DHT22;26604;53.596;10.042;2022-07-29T03:54:12;21.50;1.00
15638;DHT22;26604;53.596;10.042;2022-07-29T03:56:41;21.50;1.00
15638;DHT22;26604;53.596;10.042;2022-07-29T03:59:10;21.60;1.00
15638;DHT22;26604;53.596;10.042;2022-07-29T04:01:38;21.60;1.00
15638;DHT22;26604;53.596;10.042;2022-07-29T04:04:06;21.60;99.90
15638;DHT22;26604;53.596;10.042;2022-07-29T04:06:38;21.60;99.90
15638;DHT22;26604;53.596;10.042;2022-07-29T04:09:06;21.60;99.90
15638;DHT22;26604;53.596;10.042;2022-07-29T04:11:35;21.60;99.90
15638;DHT22;26604;53.596;10.042;2022-07-29T04:14:02;21.60;99.90
15638;DHT22;26604;53.596;10.042;2022-07-29T04:16:29;21.60;99.90
15638;DHT22;26604;53.596;10.042;2022-07-29T04:18:56;21.60;99.90
15638;DHT22;26604;53.596;10.042;2022-07-29T04:21:23;21.60;99.90
15638;DHT22;26604;53.596;10.042;2022-07-29T04:23:50;21.50;99.90
15638;DHT22;26604;53.596;10.042;2022-07-29T04:26:17;21.50;1.00
15638;DHT22;26604;53.596;10.042;2022-07-29T04:28:46;21.50;1.00
15638;DHT22;26604;53.596;10.042;2022-07-29T04:31:13;21.50;1.00
15638;DHT22;26604;53.596;10.042;2022-07-29T04:33:40;21.50;1.00
15638;DHT22;26604;53.596;10.042;2022-07-29T04:36:07;21.50;1.00
15638;DHT22;26604;53.596;10.042;2022-07-29T04:38:34;21.50;1.00
15638;DHT22;26604;53.596;10.042;2022-07-29T04:41:01;21.50;1.00
15638;DHT22;26604;53.596;10.042;2022-07-29T04:43:27;21.50;1.00
15638;DHT22;26604;53.596;10.042;2022-07-29T04:45:56;21.50;1.00
15638;DHT22;26604;53.596;10.042;2022-07-29T04:48:23;21.50;1.00
15638;DHT22;26604;53.596;10.042;2022-07-29T04:50:49;21.50;1.00
15638;DHT22;26604;53.596;10.042;2022-07-29T04:53:16;21.50;1.00
15638;DHT22;26604;53.596;10.042;2022-07-29T04:55:44;21.50;1.00
15638;DHT22;26604;53.596;10.042;2022-07-29T04:58:11;21.50;1.00
15638;DHT22;26604;53.596;10.042;2022-07-29T05:00:39;21.50;1.00
15638;DHT22;26604;53.596;10.042;2022-07-29T05:03:07;21.50;1.00
15638;DHT22;26604;53.596;10.042;2022-07-29T05:05:34;21.50;1.00
15638;DHT22;26604;53.596;10.042;2022-07-29T05:08:01;21.50;1.00
15638;DHT22;26604;53.596;10.042;2022-07-29T05:10:28;21.50;1.00
15638;DHT22;26604;53.596;10.042;2022-07-29T05:12:55;21.50;1.00
15638;DHT22;26604;53.596;10.042;2022-07-29T05:15:22;21.50;1.00
15638;DHT22;26604;53.596;10.042;2022-07-29T05:17:49;21.50;1.00
15638;DHT22;26604;53.596;10.042;2022-07-29T05:20:17;21.50;1.00
15638;DHT22;26604;53.596;10.042;2022-07-29T05:22:44;21.50;1.00
15638;DHT22;26604;53.596;10.042;2022-07-29T05:25:11;21.50;1.00
15638;DHT22;26604;53.596;10.042;2022-07-29T05:27:38;21.50;1.00
15638;DHT22;26604;53.596;10.042;2022-07-29T05:30:06;21.50;1.00
15638;DHT22;26604;53.596;10.042;2022-07-29T05:32:33;21.50;1.00
15638;DHT22;26604;53.596;10.042;2022-07-29T05:35:00;21.50;1.00
15638;DHT22;26604;53.596;10.042;2022-07-29T05:37:28;21.50;1.00
15638;DHT22;26604;53.596;10.042;2022-07-29T05:39:55;21.50;1.00
15638;DHT22;26604;53.596;10.042;2022-07-29T05:42:22;21.50;1.00
15638;DHT22;26604;53.596;10.042;2022-07-29T05:44:49;21.50;1.00
15638;DHT22;26604;53.596;10.042;2022-07-29T05:47:16;21.50;1.00
15638;DHT22;26604;53.596;10.042;2022-07-29T05:49:43;21.50;1.00
15638;DHT22;26604;53.596;10.042;2022-07-29T05:52:10;21.50;1.00
15638;DHT22;26604;53.596;10.042;2022-07-29T05:54:40;21.50;1.00
15638;DHT22;26604;53.596;10.042;2022-07-29T05:57:07;21.50;1.00
15638;DHT22;26604;53.596;10.042;2022-07-29T05:59:36;21.50;1.00
15638;DHT22;26604;53.596;10.042;2022-07-29T06:02:04;21.50;1.00
15638;DHT22;26604;53.596;10.042;2022-07-29T06:04:31;21.50;1.00
15638;DHT22;26604;53.596;10.042;2022-07-29T06:06:58;21.50;1.00
15638;DHT22;26604;53.596;10.042;2022-07-29T06:09:25;21.50;1.00
15638;DHT22;26604;53.596;10.042;2022-07-29T06:11:54;21.50;1.00
15638;DHT22;26604;53.596;10.042;2022-07-29T06:14:21;21.40;1.00
15638;DHT22;26604;53.596;10.042;2022-07-29T06:16:48;21.50;1.00
15638;DHT22;26604;53.596;10.042;2022-07-29T06:19:14;21.50;1.00
15638;DHT22;26604;53.596;10.042;2022-07-29T06:21:42;21.50;1.00
15638;DHT22;26604;53.596;10.042;2022-07-29T06:24:10;21.50;1.00
15638;DHT22;26604;53.596;10.042;2022-07-29T06:26:37;21.50;1.00
15638;DHT22;26604;53.596;10.042;2022-07-29T06:29:06;21.50;1.00
15638;DHT22;26604;53.596;10.042;2022-07-29T06:31:34;21.50;1.00
15638;DHT22;26604;53.596;10.042;2022-07-29T06:34:00;21.50;1.00
15638;DHT22;26604;53.596;10.042;2022-07-29T06:36:27;21.50;1.00
15638;DHT22;26604;53.596;10.042;2022-07-29T06:38:54;21.50;1.00
15638;DHT22;26604;53.596;10.042;2022-07-29T06:41:21;21.50;1.00
15638;DHT22;26604;53.596;10.042;2022-07-29T06:43:49;21.50;1.00
15638;DHT22;26604;53.596;10.042;2022-07-29T06:46:19;21.50;1.00
15638;DHT22;26604;53.596;10.042;2022-07-29T06:48:46;21.50;1.00
15638;DHT22;26604;53.596;10.042;2022-07-29T06:51:14;21.50;1.00
15638;DHT22;26604;53.596;10.042;2022-07-29T06:53:41;21.50;1.00
15638;DHT22;26604;53.596;10.042;2022-07-29T06:56:08;21.50;1.00
15638;DHT22;26604;53.596;10.042;2022-07-29T06:58:36;21.50;1.00
15638;DHT22;26604;53.596;10.042;2022-07-29T07:01:04;21.50;1.00
15638;DHT22;26604;53.596;10.042;2022-07-29T07:03:33;21.50;1.00
15638;DHT22;26604;53.596;10.042;2022-07-29T07:06:00;21.50;1.00
15638;DHT22;26604;53.596;10.042;2022-07-29T07:08:27;21.50;1.00
15638;DHT22;26604;53.596;10.042;2022-07-29T07:10:54;21.50;1.00
15638;DHT22;26604;53.596;10.042;2022-07-29T07:13:22;21.50;1.00
15638;DHT22;26604;53.596;10.042;2022-07-29T07:15:49;21.60;1.00
15638;DHT22;26604;53.596;10.042;2022-07-29T07:18:18;21.60;1.00
15638;DHT22;26604;53.596;10.042;2022-07-29T07:20:46;21.60;1.00
15638;DHT22;26604;53.596;10.042;2022-07-29T07:23:13;21.60;1.00
15638;DHT22;26604;53.596;10.042;2022-07-29T07:25:40;21.60;1.00
15638;DHT22;26604;53.596;10.042;2022-07-29T07:28:07;21.60;1.00
15638;DHT22;26604;53.596;10.042;2022-07-29T07:30:34;21.60;1.00
15638;DHT22;26604;53.596;10.042;2022-07-29T07:33:01;21.60;1.00
15638;DHT22;26604;53.596;10.042;2022-07-29T07:35:28;21.50;1.00
15638;DHT22;26604;53.596;10.042;2022-07-29T07:37:57;21.60;1.00
15638;DHT22;26604;53.596;10.042;2022-07-29T07:40:24;21.60;1.00
15638;DHT22;26604;53.596;10.042;2022-07-29T07:42:51;21.60;99.90
15638;DHT22;26604;53.596;10.042;2022-07-29T07:45:18;21.70;40.40
15638;DHT22;26604;53.596;10.042;2022-07-29T07:47:45;21.80;1.00
15638;DHT22;26604;53.596;10.042;2022-07-29T07:50:12;21.80;1.00
15638;DHT22;26604;53.596;10.042;2022-07-29T07:52:49;21.90;1.00
15638;DHT22;26604;53.596;10.042;2022-07-29T07:55:19;21.90;1.00
15638;DHT22;26604;53.596;10.042;2022-07-29T07:57:46;21.80;1.00
15638;DHT22;26604;53.596;10.042;2022-07-29T08:00:14;21.80;1.00
15638;DHT22;26604;53.596;10.042;2022-07-29T08:02:41;21.80;1.00
15638;DHT22;26604;53.596;10.042;2022-07-29T08:05:11;21.80;99.90
15638;DHT22;26604;53.596;10.042;2022-07-29T08:07:42;21.80;99.90
15638;DHT22;26604;53.596;10.042;2022-07-29T08:10:09;21.70;34.90
15638;DHT22;26604;53.596;10.042;2022-07-29T08:12:37;21.70;1.00
15638;DHT22;26604;53.596;10.042;2022-07-29T08:15:05;21.70;1.00
15638;DHT22;26604;53.596;10.042;2022-07-29T08:17:33;21.70;1.00
15638;DHT22;26604;53.596;10.042;2022-07-29T08:20:00;21.70;1.00
15638;DHT22;26604;53.596;10.042;2022-07-29T08:22:27;21.70;1.00
15638;DHT22;26604;53.596;10.042;2022-07-29T08:24:54;21.70;1.00
15638;DHT22;26604;53.596;10.042;2022-07-29T08:27:22;21.70;1.00
15638;DHT22;26604;53.596;10.042;2022-07-29T08:29:50;21.70;1.00
15638;DHT22;26604;53.596;10.042;2022-07-29T08:32:17;21.70;1.00
15638;DHT22;26604;53.596;10.042;2022-07-29T08:34:44;21.70;1.00
15638;DHT22;26604;53.596;10.042;2022-07-29T08:37:12;21.70;1.00
15638;DHT22;26604;53.596;10.042;2022-07-29T08:39:39;21.70;1.00
15638;DHT22;26604;53.596;10.042;2022-07-29T08:42:06;21.70;1.00
15638;DHT22;26604;53.596;10.042;2022-07-29T08:44:33;21.70;1.00
15638;DHT22;26604;53.596;10.042;2022-07-29T08:47:02;21.70;1.00
15638;DHT22;26604;53.596;10.042;2022-07-29T08:49:30;21.70;1.00
15638;DHT22;26604;53.596;10.042;2022-07-29T08:51:57;21.70;1.00
15638;DHT22;26604;53.596;10.042;2022-07-29T08:54:25;21.70;1.00
15638;DHT22;26604;53.596;10.042;2022-07-29T08:56:52;21.70;1.00
15638;DHT22;26604;53.596;10.042;2022-07-29T08:59:20;21.70;1.00
15638;DHT22;26604;53.596;10.042;2022-07-29T09:01:51;21.70;1.00
15638;DHT22;26604;53.596;10.042;2022-07-29T09:04:21;21.70;96.80
15638;DHT22;26604;53.596;10.042;2022-07-29T09:06:51;21.70;99.90
15638;DHT22;26604;53.596;10.042;2022-07-29T09:09:20;21.70;99.90
15638;DHT22;26604;53.596;10.042;2022-07-29T09:11:47;21.70;1.00
15638;DHT22;26604;53.596;10.042;2022-07-29T09:14:14;21.80;1.00
15638;DHT22;26604;53.596;10.042;2022-07-29T09:16:50;21.70;1.00
15638;DHT22;26604;53.596;10.042;2022-07-29T09:19:23;21.70;1.00
15638;DHT22;26604;53.596;10.042;2022-07-29T09:21:50;21.80;1.00
15638;DHT22;26604;53.596;10.042;2022-07-29T09:24:37;21.80;1.00
15638;DHT22;26604;53.596;10.042;2022-07-29T09:27:18;21.80;42.90
15638;DHT22;26604;53.596;10.042;2022-07-29T09:29:46;21.80;99.90
15638;DHT22;26604;53.596;10.042;2022-07-29T09:32:13;21.80;99.90
15638;DHT22;26604;53.596;10.042;2022-07-29T09:34:42;21.80;99.90
15638;DHT22;26604;53.596;10.042;2022-07-29T09:37:09;21.80;99.90
15638;DHT22;26604;53.596;10.042;2022-07-29T09:39:38;21.80;99.90
15638;DHT22;26604;53.596;10.042;2022-07-29T09:42:11;21.80;99.90
15638;DHT22;26604;53.596;10.042;2022-07-29T09:44:43;21.80;99.90
15638;DHT22;26604;53.596;10.042;2022-07-29T09:47:10;21.80;99.90
15638;DHT22;26604;53.596;10.042;2022-07-29T09:49:53;21.80;1.00
15638;DHT22;26604;53.596;10.042;2022-07-29T09:52:20;21.80;1.00
15638;DHT22;26604;53.596;10.042;2022-07-29T09:54:47;21.80;99.90
15638;DHT22;26604;53.596;10.042;2022-07-29T09:57:25;21.80;1.00
15638;DHT22;26604;53.596;10.042;2022-07-29T09:59:59;21.90;1.00
15638;DHT22;26604;53.596;10.042;2022-07-29T10:02:31;21.90;1.00
15638;DHT22;26604;53.596;10.042;2022-07-29T10:05:00;21.90;99.90
15638;DHT22;26604;53.596;10.042;2022-07-29T10:07:43;21.90;99.90
15638;DHT22;26604;53.596;10.042;2022-07-29T10:10:11;21.90;24.80
15638;DHT22;26604;53.596;10.042;2022-07-29T10:12:54;21.90;1.00
15638;DHT22;26604;53.596;10.042;2022-07-29T10:15:23;21.90;1.00
15638;DHT22;26604;53.596;10.042;2022-07-29T10:17:51;21.90;1.00
15638;DHT22;26604;53.596;10.042;2022-07-29T10:20:20;21.90;1.00
15638;DHT22;26604;53.596;10.042;2022-07-29T10:22:47;21.90;1.00
15638;DHT22;26604;53.596;10.042;2022-07-29T10:25:15;21.80;1.00
15638;DHT22;26604;53.596;10.042;2022-07-29T10:27:43;21.90;1.00
15638;DHT22;26604;53.596;10.042;2022-07-29T10:30:10;21.90;1.00
15638;DHT22;26604;53.596;10.042;2022-07-29T10:32:57;21.90;1.00
15638;DHT22;26604;53.596;10.042;2022-07-29T10:35:38;21.90;1.00
15638;DHT22;26604;53.596;10.042;2022-07-29T10:38:45;21.90;1.00
15638;DHT22;26604;53.596;10.042;2022-07-29T10:44:24;21.90;1.00
15638;DHT22;26604;53.596;10.042;2022-07-29T10:46:53;21.90;99.90
15638;DHT22;26604;53.596;10.042;2022-07-29T10:49:21;21.90;99.90
15638;DHT22;26604;53.596;10.042;2022-07-29T10:52:03;21.90;27.30
15638;DHT22;26604;53.596;10.042;2022-07-29T10:54:38;21.90;1.00
15638;DHT22;26604;53.596;10.042;2022-07-29T10:57:14;21.90;99.90
15638;DHT22;26604;53.596;10.042;2022-07-29T10:59:41;21.90;75.80
15638;DHT22;26604;53.596;10.042;2022-07-29T11:05:10;21.90;1.00
15638;DHT22;26604;53.596;10.042;2022-07-29T11:14:07;21.90;99.90
15638;DHT22;26604;53.596;10.042;2022-07-29T11:17:02;21.90;99.90
15638;DHT22;26604;53.596;10.042;2022-07-29T11:19:29;21.90;1.00
15638;DHT22;26604;53.596;10.042;2022-07-29T11:21:57;21.90;1.00
15638;DHT22;26604;53.596;10.042;2022-07-29T11:24:26;21.90;99.90
15638;DHT22;26604;53.596;10.042;2022-07-29T11:27:11;21.90;99.90
15638;DHT22;26604;53.596;10.042;2022-07-29T11:29:40;21.90;1.00
15638;DHT22;26604;53.596;10.042;2022-07-29T11:32:14;22.00;2.30
15638;DHT22;26604;53.596;10.042;2022-07-29T11:34:43;22.00;27.70
15638;DHT22;26604;53.596;10.042;2022-07-29T11:37:31;22.00;34.70
15638;DHT22;26604;53.596;10.042;2022-07-29T11:40:17;22.00;1.00
15638;DHT22;26604;53.596;10.042;2022-07-29T11:42:49;22.00;1.00
15638;DHT22;26604;53.596;10.042;2022-07-29T11:45:21;22.00;1.00
15638;DHT22;26604;53.596;10.042;2022-07-29T11:47:54;22.10;99.90
15638;DHT22;26604;53.596;10.042;2022-07-29T11:50:34;22.10;99.90
15638;DHT22;26604;53.596;10.042;2022-07-29T11:53:03;22.00;1.00
15638;DHT22;26604;53.596;10.042;2022-07-29T11:55:37;22.10;1.00
15638;DHT22;26604;53.596;10.042;2022-07-29T11:58:05;22.00;1.00
15638;DHT22;26604;53.596;10.042;2022-07-29T12:00:34;22.10;1.00
15638;DHT22;26604;53.596;10.042;2022-07-29T12:03:03;22.10;1.00
15638;DHT22;26604;53.596;10.042;2022-07-29T12:05:36;22.00;1.00
15638;DHT22;26604;53.596;10.042;2022-07-29T12:08:08;22.00;99.90
15638;DHT22;26604;53.596;10.042;2022-07-29T12:10:36;22.00;99.90
15638;DHT22;26604;53.596;10.042;2022-07-29T12:13:04;22.00;99.90
15638;DHT22;26604;53.596;10.042;2022-07-29T12:15:31;22.00;99.90
15638;DHT22;26604;53.596;10.042;2022-07-29T12:17:58;22.00;99.90
15638;DHT22;26604;53.596;10.042;2022-07-29T12:20:27;22.10;99.90
15638;DHT22;26604;53.596;10.042;2022-07-29T12:22:54;22.10;99.90
15638;DHT22;26604;53.596;10.042;2022-07-29T12:25:23;22.10;99.90
15638;DHT22;26604;53.596;10.042;2022-07-29T12:28:03;22.10;99.90
15638;DHT22;26604;53.596;10.042;2022-07-29T12:30:39;22.10;99.90
15638;DHT22;26604;53.596;10.042;2022-07-29T12:33:19;22.10;1.00
15638;DHT22;26604;53.596;10.042;2022-07-29T12:35:49;22.10;1.00
15638;DHT22;26604;53.596;10.042;2022-07-29T12:38:16;22.10;99.90
15638;DHT22;26604;53.596;10.042;2022-07-29T12:40:45;22.10;99.90
15638;DHT22;26604;53.596;10.042;2022-07-29T12:43:16;22.10;1.00
15638;DHT22;26604;53.596;10.042;2022-07-29T12:45:46;22.10;1.00
15638;DHT22;26604;53.596;10.042;2022-07-29T12:48:14;22.10;1.00
15638;DHT22;26604;53.596;10.042;2022-07-29T12:50:59;22.10;1.00
15638;DHT22;26604;53.596;10.042;2022-07-29T12:53:27;22.10;99.90
15638;DHT22;26604;53.596;10.042;2022-07-29T12:55:56;22.10;99.90
15638;DHT22;26604;53.596;10.042;2022-07-29T12:58:35;22.10;99.90
15638;DHT22;26604;53.596;10.042;2022-07-29T13:01:07;22.10;1.00
15638;DHT22;26604;53.596;10.042;2022-07-29T13:03:45;22.20;1.00
15638;DHT22;26604;53.596;10.042;2022-07-29T13:06:28;22.20;30.20
15638;DHT22;26604;53.596;10.042;2022-07-29T13:09:03;22.20;96.40
15638;DHT22;26604;53.596;10.042;2022-07-29T13:11:31;22.10;97.90
15638;DHT22;26604;53.596;10.042;2022-07-29T13:13:59;22.20;57.90
15638;DHT22;26604;53.596;10.042;2022-07-29T13:16:27;22.10;16.00
15638;DHT22;26604;53.596;10.042;2022-07-29T13:19:08;22.10;1.00
15638;DHT22;26604;53.596;10.042;2022-07-29T13:21:35;22.20;99.90
15638;DHT22;26604;53.596;10.042;2022-07-29T13:24:02;22.20;1.00
15638;DHT22;26604;53.596;10.042;2022-07-29T13:26:30;22.30;99.90
15638;DHT22;26604;53.596;10.042;2022-07-29T13:28:57;22.30;99.90
15638;DHT22;26604;53.596;10.042;2022-07-29T13:31:25;22.30;1.00
15638;DHT22;26604;53.596;10.042;2022-07-29T13:33:52;22.30;11.80
15638;DHT22;26604;53.596;10.042;2022-07-29T13:36:19;22.30;99.90
15638;DHT22;26604;53.596;10.042;2022-07-29T13:38:46;22.30;1.00
15638;DHT22;26604;53.596;10.042;2022-07-29T13:41:13;22.30;1.00
15638;DHT22;26604;53.596;10.042;2022-07-29T13:43:39;22.30;1.00
15638;DHT22;26604;53.596;10.042;2022-07-29T13:46:06;22.30;99.90
15638;DHT22;26604;53.596;10.042;2022-07-29T13:48:35;22.30;1.00
15638;DHT22;26604;53.596;10.042;2022-07-29T13:51:02;22.30;1.00
15638;DHT22;26604;53.596;10.042;2022-07-29T13:53:28;22.30;1.00
15638;DHT22;26604;53.596;10.042;2022-07-29T13:55:55;22.30;1.00
15638;DHT22;26604;53.596;10.042;2022-07-29T13:58:22;22.30;1.00
15638;DHT22;26604;53.596;10.042;2022-07-29T14:00:50;22.30;46.00
15638;DHT22;26604;53.596;10.042;2022-07-29T14:03:16;22.20;99.90
15638;DHT22;26604;53.596;10.042;2022-07-29T14:05:45;22.20;99.90
15638;DHT22;26604;53.596;10.042;2022-07-29T14:08:12;22.20;99.90
15638;DHT22;26604;53.596;10.042;2022-07-29T14:10:39;22.20;99.90
15638;DHT22;26604;53.596;10.042;2022-07-29T14:13:06;22.20;99.90
15638;DHT22;26604;53.596;10.042;2022-07-29T14:15:33;22.20;99.90
15638;DHT22;26604;53.596;10.042;2022-07-29T14:18:00;22.20;99.90
15638;DHT22;26604;53.596;10.042;2022-07-29T14:20:27;22.20;1.00
15638;DHT22;26604;53.596;10.042;2022-07-29T14:22:56;22.30;1.00
15638;DHT22;26604;53.596;10.042;2022-07-29T14:25:23;22.30;1.00
15638;DHT22;26604;53.596;10.042;2022-07-29T14:27:50;22.30;1.00
15638;DHT22;26604;53.596;10.042;2022-07-29T14:30:18;22.30;1.00
15638;DHT22;26604;53.596;10.042;2022-07-29T14:32:46;22.30;1.00
15638;DHT22;26604;53.596;10.042;2022-07-29T14:35:13;22.30;1.00
15638;DHT22;26604;53.596;10.042;2022-07-29T14:37:40;22.40;10.30
15638;DHT22;26604;53.596;10.042;2022-07-29T14:40:09;22.40;99.90
15638;DHT22;26604;53.596;10.042;2022-07-29T14:42:37;22.40;1.00
15638;DHT22;26604;53.596;10.042;2022-07-29T14:45:05;22.50;1.00
15638;DHT22;26604;53.596;10.042;2022-07-29T14:47:32;22.50;1.00
15638;DHT22;26604;53.596;10.042;2022-07-29T14:49:59;22.50;1.00
15638;DHT22;26604;53.596;10.042;2022-07-29T14:52:26;22.50;1.00
15638;DHT22;26604;53.596;10.042;2022-07-29T14:54:53;22.60;1.00
15638;DHT22;26604;53.596;10.042;2022-07-29T14:57:21;22.60;1.00
15638;DHT22;26604;53.596;10.042;2022-07-29T14:59:48;22.60;1.00
15638;DHT22;26604;53.596;10.042;2022-07-29T15:02:16;22.60;1.00
15638;DHT22;26604;53.596;10.042;2022-07-29T15:04:43;22.60;1.00
15638;DHT22;26604;53.596;10.042;2022-07-29T15:07:11;22.60;1.00
15638;DHT22;26604;53.596;10.042;2022-07-29T15:09:38;22.60;1.00
15638;DHT22;26604;53.596;10.042;2022-07-29T15:12:05;22.60;1.00
15638;DHT22;26604;53.596;10.042;2022-07-29T15:14:34;22.60;1.00
15638;DHT22;26604;53.596;10.042;2022-07-29T15:17:01;22.60;1.00
15638;DHT22;26604;53.596;10.042;2022-07-29T15:19:28;22.60;1.00
15638;DHT22;26604;53.596;10.042;2022-07-29T15:21:55;22.50;1.00
15638;DHT22;26604;53.596;10.042;2022-07-29T15:24:22;22.50;1.00
15638;DHT22;26604;53.596;10.042;2022-07-29T15:26:49;22.50;1.00
15638;DHT22;26604;53.596;10.042;2022-07-29T15:29:16;22.50;1.00
15638;DHT22;26604;53.596;10.042;2022-07-29T15:31:44;22.50;1.00
15638;DHT22;26604;53.596;10.042;2022-07-29T15:34:11;22.50;1.00
15638;DHT22;26604;53.596;10.042;2022-07-29T15:36:38;22.40;1.00
15638;DHT22;26604;53.596;10.042;2022-07-29T15:39:05;22.40;99.90
15638;DHT22;26604;53.596;10.042;2022-07-29T15:41:33;22.40;99.90
15638;DHT22;26604;53.596;10.042;2022-07-29T15:44:00;22.40;99.90
15638;DHT22;26604;53.596;10.042;2022-07-29T15:46:27;22.40;99.90
15638;DHT22;26604;53.596;10.042;2022-07-29T15:49:12;22.40;99.90
15638;DHT22;26604;53.596;10.042;2022-07-29T15:51:40;22.40;99.90